Time;durP1;ratioP1;P1;durP2;ratioP2;P2;SDS_P1;SDS_P2;PMS_P1;PMS_P2;Temp;Humidity;BMP_temperature;BMP_pressure;BME280_temperature;BME280_humidity;BME280_pressure;Samples;Min_cycle;Max_cycle;Signal;HPM_P1;HPM_P2
2023/06/07 00:02:02;;;;;;;15.40;8.13;;;;;;;14.55;82.33;102008.81;4899679;29;20388;-81
2023/06/07 00:04:30;;;;;;;16.88;7.72;;;;;;;14.46;82.20;102009.41;4898527;29;20558;-81
2023/06/07 00:07:00;;;;;;;12.63;6.88;;;;;;;14.46;82.50;102006.81;4899717;29;20056;-81
2023/06/07 00:09:27;;;;;;;13.32;7.03;;;;;;;14.10;83.00;101952.66;4899664;29;20029;-81
2023/06/07 00:11:52;;;;;;;16.35;7.65;;;;;;;14.49;82.42;102015.25;4899682;29;20076;-81
2023/06/07 00:14:18;;;;;;;10.93;6.65;;;;;;;14.57;81.62;102023.41;4899303;29;20362;-81
2023/06/07 00:16:44;;;;;;;13.98;7.10;;;;;;;14.28;81.55;101980.97;4899402;29;20060;-80
2023/06/07 00:19:11;;;;;;;15.07;7.80;;;;;;;14.31;81.83;101995.53;4899404;29;20029;-81
2023/06/07 00:21:38;;;;;;;12.25;7.53;;;;;;;14.19;81.71;101985.88;4899059;29;20029;-81
2023/06/07 00:24:03;;;;;;;12.60;7.40;;;;;;;14.44;81.84;102029.41;4899219;29;20029;-79
2023/06/07 00:26:29;;;;;;;13.07;7.60;;;;;;;14.09;82.08;101984.75;4899550;29;20029;-82
2023/06/07 00:28:54;;;;;;;14.63;8.07;;;;;;;14.37;82.12;102021.16;4898956;29;20058;-80
2023/06/07 00:31:20;;;;;;;13.60;7.93;;;;;;;14.11;82.60;101993.28;4899141;29;20036;-81
2023/06/07 00:33:45;;;;;;;14.65;7.18;;;;;;;14.17;82.12;101992.94;4898993;29;20111;-82
2023/06/07 00:36:11;;;;;;;14.55;7.28;;;;;;;14.01;82.21;101975.63;4898831;29;20137;-82
2023/06/07 00:38:36;;;;;;;13.05;7.22;;;;;;;14.28;82.31;102022.53;4899029;29;20064;-81
2023/06/07 00:41:01;;;;;;;13.90;7.38;;;;;;;14.06;82.34;101998.75;4899138;29;20096;-82
2023/06/07 00:43:27;;;;;;;14.30;7.55;;;;;;;14.13;82.50;102022.59;4898890;29;20043;-81
2023/06/07 00:45:52;;;;;;;11.75;7.25;;;;;;;14.16;83.37;102025.00;4898960;29;20029;-81
2023/06/07 00:48:18;;;;;;;11.57;7.47;;;;;;;13.97;83.44;101987.16;4898804;29;20028;-82
2023/06/07 00:50:45;;;;;;;12.63;7.03;;;;;;;14.08;82.53;102009.88;4898741;29;20036;-81
2023/06/07 00:53:10;;;;;;;13.50;7.70;;;;;;;13.98;83.28;102004.41;4898547;29;20029;-81
2023/06/07 00:55:36;;;;;;;14.23;7.28;;;;;;;13.93;82.81;102001.22;4898808;29;20023;-82
2023/06/07 00:58:01;;;;;;;12.43;7.18;;;;;;;13.71;83.32;101973.06;4898891;29;20079;-82
2023/06/07 01:00:28;;;;;;;14.93;6.80;;;;;;;13.94;83.56;102021.06;4898348;29;20460;-81
2023/06/07 01:02:55;;;;;;;10.82;7.07;;;;;;;13.93;83.37;102019.41;4897505;29;20032;-81
2023/06/07 01:05:21;;;;;;;16.90;7.47;;;;;;;13.71;83.58;101996.44;4898495;29;20025;-82
2023/06/07 01:07:48;;;;;;;12.80;7.45;;;;;;;13.86;83.51;102025.84;4897131;29;20370;-81
2023/06/07 01:10:14;;;;;;;16.50;7.75;;;;;;;13.75;83.64;102025.66;4898141;29;20060;-82
2023/06/07 01:12:44;;;;;;;11.35;6.53;;;;;;;13.70;83.98;102023.31;4898577;29;20060;-81
2023/06/07 01:15:11;;;;;;;16.80;7.88;;;;;;;13.65;84.37;102020.13;4898318;29;20121;-82
2023/06/07 01:17:40;;;;;;;13.60;7.40;;;;;;;13.39;84.85;101990.50;4898249;29;20084;-82
2023/06/07 01:20:13;;;;;;;11.57;6.95;;;;;;;13.34;84.95;101971.72;4873055;23;20506;-81
2023/06/07 01:22:44;;;;;;;15.15;7.63;;;;;;;13.59;84.75;102019.66;4861020;29;20025;-82
2023/06/07 01:25:10;;;;;;;14.25;7.55;;;;;;;13.40;84.88;101993.91;4860780;29;20022;-80
2023/06/07 01:27:40;;;;;;;13.77;7.70;;;;;;;13.41;85.31;101998.19;4860735;29;20029;-81
2023/06/07 01:30:07;;;;;;;13.93;8.13;;;;;;;13.40;85.58;102020.69;4859582;29;20414;-82
2023/06/07 01:32:33;;;;;;;14.23;8.43;;;;;;;13.17;85.72;101982.19;4860727;29;20414;-82
2023/06/07 01:34:59;;;;;;;17.15;8.43;;;;;;;13.30;86.23;102013.53;4859640;29;20034;-81
2023/06/07 01:37:25;;;;;;;15.30;7.75;;;;;;;13.37;86.36;102004.44;4860546;29;20525;-81
2023/06/07 01:39:52;;;;;;;13.07;8.50;;;;;;;13.27;86.35;101987.72;4860457;29;20482;-81
2023/06/07 01:42:19;;;;;;;13.13;7.75;;;;;;;13.38;86.32;102003.56;4860694;29;20033;-81
2023/06/07 01:44:46;;;;;;;14.18;8.70;;;;;;;13.35;86.10;102009.72;4860386;29;20029;-82
2023/06/07 01:47:14;;;;;;;14.55;8.32;;;;;;;13.28;86.40;102000.63;4860611;29;20025;-81
2023/06/07 01:49:40;;;;;;;12.85;7.88;;;;;;;13.18;86.79;101986.47;4860325;29;20435;-82
2023/06/07 01:52:05;;;;;;;14.30;8.20;;;;;;;13.36;86.51;102011.41;4860361;29;20090;-82
2023/06/07 01:54:31;;;;;;;15.18;8.27;;;;;;;13.12;86.45;101981.63;4860831;29;20034;-82
2023/06/07 01:57:15;;;;;;;18.42;8.35;;;;;;;13.28;86.19;102012.78;4860617;29;20078;-81
2023/06/07 01:59:49;;;;;;;16.48;8.55;;;;;;;13.23;87.07;102007.00;4859519;29;20045;-81
2023/06/07 02:02:33;;;;;;;16.92;8.90;;;;;;;13.17;86.71;102001.19;4860401;29;20113;-82
2023/06/07 02:05:03;;;;;;;15.77;8.95;;;;;;;13.11;87.33;102004.13;4859026;29;20486;-82
2023/06/07 02:07:32;;;;;;;15.45;8.38;;;;;;;13.06;87.34;101987.13;4860543;29;20167;-81
2023/06/07 02:09:57;;;;;;;16.42;8.40;;;;;;;13.03;87.93;101998.50;4860301;29;20025;-82
2023/06/07 02:12:23;;;;;;;14.57;9.13;;;;;;;12.71;87.83;101960.53;4860328;29;20040;-82
2023/06/07 02:14:52;;;;;;;13.88;8.63;;;;;;;12.97;88.09;102006.59;4863786;29;20025;-81
2023/06/07 02:17:21;;;;;;;19.08;9.70;;;;;;;12.43;88.50;101924.91;4864076;29;20097;-82
2023/06/07 02:19:58;;;;;;;15.18;9.05;;;;;;;12.01;88.43;101862.34;4863811;29;20064;-80
2023/06/07 02:22:23;;;;;;;15.52;8.60;;;;;;;11.94;88.72;101867.91;4862886;29;20034;-81
2023/06/07 02:24:50;;;;;;;14.93;8.93;;;;;;;12.78;89.17;101999.00;4864313;29;20036;-81
2023/06/07 02:27:15;;;;;;;17.25;9.73;;;;;;;12.52;89.30;101961.50;4864133;29;20029;-82
2023/06/07 02:29:40;;;;;;;16.30;8.80;;;;;;;12.75;89.47;102006.94;4862380;29;20056;-82
2023/06/07 02:32:07;;;;;;;14.93;8.95;;;;;;;12.70;89.44;102002.94;4863865;29;20026;-81
2023/06/07 02:34:32;;;;;;;15.43;8.68;;;;;;;12.69;89.43;102003.84;4863967;29;20045;-82
2023/06/07 02:36:57;;;;;;;14.75;9.20;;;;;;;12.66;89.87;102002.22;4863949;29;20033;-81
2023/06/07 02:39:23;;;;;;;20.08;9.32;;;;;;;12.67;89.45;102006.50;4862527;29;20052;-82
2023/06/07 02:41:48;;;;;;;16.63;9.35;;;;;;;12.66;89.68;102004.81;4862823;29;20034;-82
2023/06/07 02:44:13;;;;;;;15.55;8.63;;;;;;;12.57;90.40;101985.41;4863793;29;20092;-82
2023/06/07 02:46:39;;;;;;;15.32;8.85;;;;;;;12.51;90.00;101982.34;4863804;29;20064;-82
2023/06/07 02:49:05;;;;;;;15.95;9.32;;;;;;;12.60;90.00;102007.75;4863779;29;20048;-82
2023/06/07 02:51:30;;;;;;;15.13;9.10;;;;;;;12.52;90.36;102004.72;4863768;29;20040;-82
2023/06/07 02:53:56;;;;;;;14.18;8.73;;;;;;;12.35;90.46;101979.69;4863337;29;20029;-82
2023/06/07 02:56:29;;;;;;;17.60;9.75;;;;;;;12.50;90.76;102002.22;4863664;29;20042;-82
2023/06/07 02:58:54;;;;;;;14.70;8.35;;;;;;;12.53;90.53;102009.00;4862182;29;20048;-82
2023/06/07 03:01:21;;;;;;;13.88;8.88;;;;;;;12.48;90.58;102005.78;4863316;29;20029;-81
2023/06/07 03:03:47;;;;;;;16.70;8.93;;;;;;;12.54;90.25;102005.47;4863570;29;20101;-84
2023/06/07 03:06:15;;;;;;;15.20;8.02;;;;;;;12.50;90.38;102003.97;4863371;29;20034;-82
2023/06/07 03:08:40;;;;;;;18.30;9.00;;;;;;;12.17;90.54;101957.34;4862070;29;20049;-82
2023/06/07 03:11:06;;;;;;;14.30;7.93;;;;;;;12.28;90.81;101979.16;4863393;29;20134;-81
2023/06/07 03:13:31;;;;;;;14.00;8.73;;;;;;;12.50;90.67;102001.38;4863308;29;20029;-82
2023/06/07 03:15:56;;;;;;;14.35;8.40;;;;;;;12.62;90.58;102005.91;4862815;29;20474;-81
2023/06/07 03:18:23;;;;;;;13.48;8.40;;;;;;;12.60;90.08;102008.59;4863023;29;20036;-81
2023/06/07 03:20:48;;;;;;;16.77;8.35;;;;;;;12.53;90.50;102003.81;4862989;29;20041;-81
2023/06/07 03:23:14;;;;;;;13.93;8.45;;;;;;;12.17;90.90;101955.56;4862750;29;20406;-79
2023/06/07 03:25:40;;;;;;;15.82;9.38;;;;;;;12.19;90.69;101960.66;4862191;29;20029;-81
2023/06/07 03:28:05;;;;;;;18.38;8.57;;;;;;;12.28;90.85;101975.75;4862811;29;20082;-81
2023/06/07 03:30:31;;;;;;;14.75;8.80;;;;;;;12.24;91.07;101971.66;4862884;29;20098;-81
2023/06/07 03:32:56;;;;;;;16.85;8.77;;;;;;;12.09;91.17;101957.72;4862782;29;20113;-83
2023/06/07 03:35:27;;;;;;;14.27;7.90;;;;;;;12.41;91.24;102014.81;4862914;29;20363;-81
2023/06/07 03:37:52;;;;;;;15.77;8.20;;;;;;;12.37;91.59;102019.31;4862837;29;20030;-81
2023/06/07 03:40:18;;;;;;;14.80;8.85;;;;;;;12.38;91.25;102020.97;4862800;29;20048;-80
2023/06/07 03:42:43;;;;;;;13.23;8.45;;;;;;;12.36;91.52;102015.03;4862815;29;20025;-80
2023/06/07 03:45:09;;;;;;;14.55;8.55;;;;;;;12.09;91.89;101968.06;4862574;29;20447;-80
2023/06/07 03:47:35;;;;;;;15.98;8.98;;;;;;;12.27;91.82;102016.34;4862866;29;20069;-80
2023/06/07 03:50:00;;;;;;;18.63;8.25;;;;;;;12.25;92.33;102019.94;4861466;29;20367;-81
2023/06/07 03:52:26;;;;;;;20.30;9.25;;;;;;;12.19;92.28;102015.06;4862679;29;20048;-81
2023/06/07 03:54:51;;;;;;;13.20;8.45;;;;;;;12.09;92.54;101999.16;4862607;29;20053;-81
2023/06/07 03:57:17;;;;;;;12.45;8.40;;;;;;;12.14;92.41;102002.34;4862680;29;20033;-81
2023/06/07 03:59:42;;;;;;;13.68;8.40;;;;;;;12.25;92.58;102018.19;4862343;29;20029;-81
2023/06/07 04:02:07;;;;;;;17.23;9.07;;;;;;;11.83;92.41;101953.88;4862112;29;20037;-81
2023/06/07 04:04:44;;;;;;;16.33;8.15;;;;;;;12.13;93.12;102008.44;4861149;29;20026;-80
2023/06/07 04:07:16;;;;;;;18.95;8.55;;;;;;;11.49;92.36;101884.81;4862213;29;20037;-80
2023/06/07 04:09:41;;;;;;;14.25;8.38;;;;;;;11.23;92.40;101852.50;4862430;29;20030;-80
2023/06/07 04:12:19;;;;;;;16.08;8.38;;;;;;;11.17;92.55;101825.19;4865513;23;20102;-80
2023/06/07 04:14:54;;;;;;;14.57;8.98;;;;;;;10.94;92.24;101809.16;4857849;29;20837;-80
2023/06/07 04:17:19;;;;;;;14.13;9.25;;;;;;;11.99;92.71;101985.00;4843746;29;20390;-79
2023/06/07 04:19:45;;;;;;;16.98;8.75;;;;;;;11.67;92.78;101917.53;4857493;29;20094;-80
2023/06/07 04:22:11;;;;;;;13.55;7.60;;;;;;;12.00;93.13;101973.75;4865492;23;20054;-79
2023/06/07 04:24:36;;;;;;;13.38;7.90;;;;;;;12.02;92.90;101961.56;4861315;29;20070;-80
2023/06/07 04:27:02;;;;;;;16.58;8.48;;;;;;;12.34;92.23;102009.94;4860971;29;20033;-80
2023/06/07 04:29:27;;;;;;;13.40;7.82;;;;;;;12.34;91.99;102017.72;4859852;29;20401;-81
2023/06/07 04:31:56;;;;;;;15.32;8.25;;;;;;;12.24;92.04;102000.13;4860954;29;20044;-81
2023/06/07 04:34:25;;;;;;;17.38;8.75;;;;;;;12.37;92.62;102013.28;4860912;29;20029;-80
2023/06/07 04:36:52;;;;;;;16.35;7.97;;;;;;;12.12;92.06;101961.94;4860827;29;20401;-81
2023/06/07 04:39:18;;;;;;;14.98;8.00;;;;;;;12.45;92.08;102014.56;4860641;29;20021;-81
2023/06/07 04:41:45;;;;;;;16.75;8.43;;;;;;;11.99;91.46;101951.34;4859283;29;20104;-81
2023/06/07 04:44:28;;;;;;;16.08;8.27;;;;;;;12.44;91.77;102014.66;4860693;29;20025;-82
2023/06/07 04:47:00;;;;;;;16.27;8.35;;;;;;;11.46;91.38;101866.88;4860025;29;20044;-81
2023/06/07 04:49:26;;;;;;;14.80;8.20;;;;;;;11.41;91.91;101874.88;4860355;29;20505;-82
2023/06/07 04:51:52;;;;;;;15.85;8.50;;;;;;;11.93;91.71;101951.66;4860866;29;20030;-84
2023/06/07 04:54:19;;;;;;;17.52;8.82;;;;;;;12.03;92.54;101976.19;4860863;29;20374;-80
2023/06/07 04:56:45;;;;;;;17.48;8.55;;;;;;;12.40;91.89;102032.13;4859429;29;20052;-81
2023/06/07 04:59:10;;;;;;;12.73;8.27;;;;;;;12.46;92.82;102023.16;4860829;29;20037;-83
2023/06/07 05:01:36;;;;;;;16.92;7.78;;;;;;;12.44;92.33;101994.75;4861001;29;20030;-80
2023/06/07 05:04:02;;;;;;;14.00;8.18;;;;;;;12.72;91.80;102021.81;4860572;29;20029;-80
2023/06/07 05:06:37;;;;;;;15.93;7.95;;;;;;;12.61;90.43;101999.91;4859609;29;20074;-80
2023/06/07 05:09:03;;;;;;;16.27;9.13;;;;;;;12.68;90.72;102018.53;4860390;29;20033;-80
2023/06/07 05:11:28;;;;;;;15.93;7.93;;;;;;;12.83;90.34;102022.09;4860435;29;20098;-81
2023/06/07 05:13:53;;;;;;;15.20;7.75;;;;;;;12.78;89.67;102003.34;4860288;29;20061;-82
2023/06/07 05:16:19;;;;;;;15.35;7.32;;;;;;;12.82;88.38;101995.31;4860592;29;20066;-83
2023/06/07 05:18:48;;;;;;;14.52;8.20;;;;;;;13.11;88.72;102031.81;4859961;29;20070;-82
2023/06/07 05:21:19;;;;;;;14.07;7.55;;;;;;;12.58;87.73;101934.44;4732943;29;3819885;-81
2023/06/07 05:23:47;;;;;;;14.35;7.97;;;;;;;13.34;87.91;102033.16;4869902;29;20064;-79
2023/06/07 05:26:31;;;;;;;12.68;6.47;;;;;;;12.79;86.31;101927.28;4880437;29;20028;-82
2023/06/07 05:28:57;;;;;;;17.35;8.13;;;;;;;12.87;85.95;101944.06;4879475;29;20029;-80
2023/06/07 05:31:31;;;;;;;14.65;7.90;;;;;;;13.36;85.45;102034.75;4878524;29;20036;-81
2023/06/07 05:33:57;;;;;;;18.77;7.80;;;;;;;12.41;86.40;101890.47;4879447;29;20049;-81
2023/06/07 05:36:34;;;;;;;18.13;7.40;;;;;;;12.07;86.26;101840.47;4879150;29;20025;-81
2023/06/07 05:39:00;;;;;;;15.88;8.43;;;;;;;13.32;86.33;102043.63;4886273;23;20060;-80
2023/06/07 05:41:41;;;;;;;14.25;7.18;;;;;;;13.44;86.07;102045.53;4879513;29;20032;-80
2023/06/07 05:44:15;;;;;;;14.35;7.68;;;;;;;13.05;85.79;101962.94;4879456;29;20064;-81
2023/06/07 05:49:33;;;;;;;18.20;7.35;;;;;;;14.14;86.88;102032.06;4867664;23;20092;-81
2023/06/07 05:51:58;;;;;;;13.93;7.60;;;;;;;14.56;87.45;102029.53;4860413;29;20029;-80
2023/06/07 05:54:47;;;;;;;13.77;6.72;;;;;;;13.93;84.58;101917.28;4860566;29;20101;-80
2023/06/07 05:57:18;;;;;;;12.02;6.85;;;;;;;14.25;83.91;101965.53;4859313;29;20048;-81
2023/06/07 05:59:44;;;;;;;12.55;7.00;;;;;;;14.88;84.83;102043.19;4860416;29;20042;-78
2023/06/07 06:02:10;;;;;;;12.18;6.82;;;;;;;14.24;83.66;101892.88;4860656;29;20025;-79
2023/06/07 06:04:35;;;;;;;13.43;6.97;;;;;;;15.20;79.14;102041.16;4860446;29;20053;-80
2023/06/07 06:07:01;;;;;;;10.80;6.25;;;;;;;15.19;81.36;102049.91;4860306;29;20037;-78
2023/06/07 06:09:27;;;;;;;12.90;6.47;;;;;;;15.05;80.45;102018.72;4860457;29;20029;-79
2023/06/07 06:11:52;;;;;;;11.43;6.78;;;;;;;15.25;80.11;102009.66;4860396;29;20040;-80
2023/06/07 06:14:20;;;;;;;12.93;6.35;;;;;;;15.34;75.12;102045.50;4859104;29;20061;-79
2023/06/07 06:16:46;;;;;;;13.93;7.03;;;;;;;15.06;76.85;102050.78;4860471;29;20037;-80
2023/06/07 06:19:11;;;;;;;15.63;6.90;;;;;;;15.10;79.16;102049.63;4860013;29;20433;-80
2023/06/07 06:21:37;;;;;;;13.48;6.75;;;;;;;15.24;76.17;102056.56;4860552;29;20486;-80
2023/06/07 06:24:03;;;;;;;13.10;6.93;;;;;;;15.17;76.59;102037.94;4860474;29;20037;-81
2023/06/07 06:26:29;;;;;;;12.30;7.05;;;;;;;15.16;75.63;102031.06;4860082;29;20038;-81
2023/06/07 06:28:54;;;;;;;13.23;6.38;;;;;;;15.39;74.75;102056.44;4860234;29;20061;-80
2023/06/07 06:31:38;;;;;;;13.73;6.85;;;;;;;15.39;73.75;102017.41;4860225;29;20113;-80
2023/06/07 06:34:25;;;;;;;14.32;6.05;;;;;;;16.44;72.54;102058.28;4860201;29;20060;-81
2023/06/07 06:37:20;;;;;;;10.63;6.20;;;;;;;15.95;69.71;101866.16;4860170;29;20040;-81
2023/06/07 06:39:51;;;;;;;12.80;5.70;;;;;;;15.64;68.38;101876.09;4820475;29;20129;-81
2023/06/07 06:42:17;;;;;;;14.90;6.25;;;;;;;15.74;69.15;101946.59;4821453;29;20105;-80
2023/06/07 06:44:54;;;;;;;13.68;5.68;;;;;;;15.15;70.63;101894.91;4821357;29;20152;-79
2023/06/07 06:47:20;;;;;;;14.40;5.95;;;;;;;14.56;70.01;101849.34;4820920;29;20042;-81
2023/06/07 06:50:03;;;;;;;13.95;6.05;;;;;;;14.72;71.78;101916.78;4821148;29;20391;-81
2023/06/07 06:52:28;;;;;;;11.77;6.10;;;;;;;15.16;72.26;102020.66;4821277;29;20043;-81
2023/06/07 06:54:54;;;;;;;13.73;6.43;;;;;;;15.53;73.92;102083.34;4821518;29;20115;-80
2023/06/07 06:57:19;;;;;;;13.38;6.35;;;;;;;15.48;73.89;102070.66;4821452;29;20555;-81
2023/06/07 06:59:45;;;;;;;13.05;6.35;;;;;;;15.53;74.47;102071.16;4821531;29;20034;-81
2023/06/07 07:02:10;;;;;;;11.05;6.00;;;;;;;15.60;73.45;102074.22;4824212;29;20035;-82
2023/06/07 07:04:36;;;;;;;17.63;7.13;;;;;;;15.35;73.57;102077.56;4832704;29;20050;-79
2023/06/07 07:07:01;;;;;;;11.68;6.38;;;;;;;14.96;74.50;102047.06;4842802;29;20029;-81
2023/06/07 07:09:26;;;;;;;11.57;6.07;;;;;;;15.25;75.54;102082.53;4842789;29;20533;-82
2023/06/07 07:11:52;;;;;;;11.70;5.97;;;;;;;15.41;74.83;102090.19;4842783;29;20037;-82
2023/06/07 07:14:19;;;;;;;15.45;6.90;;;;;;;15.18;74.05;102056.03;4842811;29;20102;-81
2023/06/07 07:16:44;;;;;;;14.38;5.85;;;;;;;15.43;74.52;102070.91;4853985;29;20390;-80
2023/06/07 07:19:10;;;;;;;12.40;6.18;;;;;;;15.80;74.62;102066.00;4862953;29;20040;-81
2023/06/07 07:21:35;;;;;;;14.23;6.38;;;;;;;16.14;72.53;102085.47;4863062;29;20545;-85
2023/06/07 07:24:00;;;;;;;12.05;5.97;;;;;;;16.10;71.75;102073.56;4863127;29;20037;-82
2023/06/07 07:26:27;;;;;;;13.85;6.70;;;;;;;16.28;73.37;102089.75;4863320;29;20032;-84
2023/06/07 07:28:53;;;;;;;15.82;6.10;;;;;;;16.01;70.52;102048.09;4863185;29;20108;-81
2023/06/07 07:31:18;;;;;;;13.85;6.07;;;;;;;16.28;72.02;102089.75;4862809;29;20129;-82
2023/06/07 07:33:44;;;;;;;11.70;5.57;;;;;;;16.39;71.45;102087.25;4860491;29;20017;-82
2023/06/07 07:38:51;;;;;;;15.05;6.05;;;;;;;16.17;68.81;101967.13;4977795;23;20057;-84
2023/06/07 07:41:17;;;;;;;12.80;6.60;;;;;;;16.35;69.44;102012.81;4881466;29;20029;-83
2023/06/07 07:43:55;;;;;;;9.80;5.15;;;;;;;16.89;69.26;102096.03;4881447;29;20043;-86
2023/06/07 07:46:20;;;;;;;14.05;6.20;;;;;;;15.98;67.93;101944.94;4864650;29;20029;-86
2023/06/07 07:49:12;;;;;;;11.95;6.47;;;;;;;17.01;69.72;102096.94;4880740;29;20044;-84
2023/06/07 07:51:46;;;;;;;11.73;5.95;;;;;;;17.20;68.03;102095.53;4823715;29;20453;-83
2023/06/07 07:54:20;;;;;;;12.40;6.30;;;;;;;16.31;67.16;101941.78;4823674;29;20462;-82
2023/06/07 07:56:45;;;;;;;11.55;5.78;;;;;;;16.53;66.93;101976.81;4823885;29;20035;-84
2023/06/07 07:59:20;;;;;;;12.20;6.10;;;;;;;16.80;66.69;102005.34;4823471;29;20042;-82
2023/06/07 08:02:01;;;;;;;13.30;6.07;;;;;;;16.84;67.75;102004.22;4823682;29;20046;-83
2023/06/07 08:04:44;;;;;;;13.40;6.13;;;;;;;16.86;66.23;102003.16;4823696;29;20030;-81
2023/06/07 08:07:29;;;;;;;16.95;6.85;;;;;;;17.21;67.04;102065.06;4823128;29;20082;-81
2023/06/07 08:09:55;;;;;;;13.32;6.45;;;;;;;16.43;65.79;101927.09;4823155;29;20043;-81
2023/06/07 08:12:20;;;;;;;11.80;7.10;;;;;;;17.84;64.78;102105.78;4808272;29;20031;-80
2023/06/07 08:14:46;;;;;;;14.40;6.40;;;;;;;17.62;62.27;102020.28;4823630;29;20114;-81
2023/06/07 08:17:11;;;;;;;9.13;5.63;;;;;;;18.53;63.17;102101.44;4823682;29;20038;-84
2023/06/07 08:19:58;;;;;;;11.48;6.13;;;;;;;18.51;63.21;102003.13;4823672;29;20087;-81
2023/06/07 08:22:23;;;;;;;14.57;5.70;;;;;;;19.26;60.17;102088.84;4823238;29;20042;-82
2023/06/07 08:25:09;;;;;;;10.35;5.13;;;;;;;19.46;60.74;102091.50;4822903;29;20042;-81
2023/06/07 08:27:46;;;;;;;14.35;5.45;;;;;;;18.82;60.41;101988.50;4832188;29;20056;-80
2023/06/07 08:30:12;;;;;;;14.98;6.20;;;;;;;18.88;58.58;102037.75;4879865;23;20077;-81
2023/06/07 08:32:38;;;;;;;12.75;6.03;;;;;;;18.67;60.91;102031.56;4862024;29;20021;-81
2023/06/07 08:35:21;;;;;;;16.52;6.07;;;;;;;18.19;60.60;101961.13;4861835;29;20038;-82
2023/06/07 08:37:52;;;;;;;12.10;5.72;;;;;;;18.89;60.56;102091.75;4875862;29;20038;-81
2023/06/07 08:40:26;;;;;;;12.70;6.65;;;;;;;18.49;60.96;102029.41;4861694;29;20037;-82
2023/06/07 08:43:05;;;;;;;12.52;6.57;;;;;;;17.73;61.46;101922.84;4861700;29;20477;-82
2023/06/07 08:45:31;;;;;;;10.40;6.20;;;;;;;18.37;61.54;102013.81;4861522;29;20022;-84
2023/06/07 08:48:06;;;;;;;14.65;6.13;;;;;;;18.34;62.15;101973.03;4861874;29;20648;-81
2023/06/07 08:50:32;;;;;;;13.18;6.65;;;;;;;19.12;61.62;102071.63;4861731;29;20025;-81
2023/06/07 08:53:15;;;;;;;14.30;6.40;;;;;;;18.87;61.72;102017.72;4861441;29;20049;-82
2023/06/07 08:56:02;;;;;;;14.25;6.63;;;;;;;19.45;62.97;102092.47;4861538;29;20036;-80
2023/06/07 08:58:44;;;;;;;16.17;6.93;;;;;;;19.14;60.33;102026.00;4861702;29;20029;-84
2023/06/07 09:01:28;;;;;;;12.73;6.85;;;;;;;19.30;59.30;102016.94;4861686;29;20065;-81
2023/06/07 09:03:54;;;;;;;17.13;7.05;;;;;;;19.72;59.74;102094.69;4868359;23;20057;-87
2023/06/07 09:06:26;;;;;;;11.00;5.78;;;;;;;18.92;60.14;101910.91;4868295;23;20053;-84
2023/06/07 09:08:55;;;;;;;12.65;7.75;;;;;;;20.49;56.63;102085.72;4860953;29;20514;-82
2023/06/07 09:11:35;;;;;;;11.35;5.38;;;;;;;20.00;58.55;101917.56;4876926;23;20086;-83
2023/06/07 09:14:07;;;;;;;13.00;6.20;;;;;;;21.03;56.58;102097.66;4861303;29;20089;-83
2023/06/07 09:17:06;;;;;;;12.27;5.30;;;;;;;20.97;55.85;102045.69;4861009;29;20041;-83
2023/06/07 09:19:46;;;;;;;15.23;7.15;;;;;;;19.88;54.26;101902.06;4860847;29;20501;-82
2023/06/07 09:22:42;;;;;;;13.43;6.90;;;;;;;19.72;55.41;101920.88;4860692;29;20057;-82
2023/06/07 09:25:07;;;;;;;13.25;6.30;;;;;;;19.86;55.42;101967.75;4861108;29;20037;-85
2023/06/07 09:30:32;;;;;;;17.10;6.40;;;;;;;19.60;56.89;101917.50;4993009;23;20056;-83
2023/06/07 09:32:57;;;;;;;11.52;6.88;;;;;;;19.82;56.35;101962.88;4844305;29;20094;-76
2023/06/07 09:35:25;;;;;;;15.60;7.00;;;;;;;20.44;56.50;102091.34;4860976;29;20029;-82
2023/06/07 09:37:59;;;;;;;14.10;7.00;;;;;;;20.28;55.42;102098.81;4860751;29;20108;-90
2023/06/07 09:40:24;;;;;;;10.30;5.93;;;;;;;19.96;58.41;102072.66;4860706;29;20037;-87
2023/06/07 09:42:59;;;;;;;16.75;7.68;;;;;;;19.62;57.78;102035.28;4859635;29;20381;-85
2023/06/07 09:45:31;;;;;;;14.65;6.85;;;;;;;19.88;58.90;102025.28;4861375;29;20363;-86
2023/06/07 09:48:01;;;;;;;13.85;7.55;;;;;;;20.14;55.69;102034.41;4876590;29;20064;-86
2023/06/07 09:50:28;;;;;;;14.05;6.43;;;;;;;20.51;57.08;102089.88;4880255;29;20037;-87
2023/06/07 09:53:01;;;;;;;16.48;7.68;;;;;;;20.43;56.51;102094.09;4878650;29;20056;-86
2023/06/07 09:55:28;;;;;;;13.88;6.10;;;;;;;20.41;57.52;102085.50;4877991;29;20511;-87
2023/06/07 09:57:55;;;;;;;18.02;6.63;;;;;;;20.32;57.37;102061.69;4879187;29;20485;-87
2023/06/07 10:01:04;;;;;;;12.05;6.38;;;;;;;20.42;57.14;102082.75;4885323;23;20045;-83
2023/06/07 10:03:47;;;;;;;13.80;7.65;;;;;;;20.10;56.15;102021.69;4866514;23;20109;-84
2023/06/07 10:06:16;;;;;;;11.60;6.75;;;;;;;20.52;54.62;102088.06;4867710;23;20057;-83
2023/06/07 10:08:43;;;;;;;11.82;6.68;;;;;;;20.64;56.74;102092.25;4860641;29;20033;-82
2023/06/07 10:11:09;;;;;;;14.38;7.13;;;;;;;20.54;55.55;102067.78;4860489;29;20030;-84
2023/06/07 10:13:38;;;;;;;16.60;9.77;;;;;;;20.54;56.06;102062.53;4860577;29;20053;-85
2023/06/07 10:16:08;;;;;;;17.90;8.77;;;;;;;20.28;55.34;102052.44;4860532;29;20385;-87
2023/06/07 10:18:34;;;;;;;16.88;8.82;;;;;;;20.45;54.23;102073.81;4860423;29;20040;-86
2023/06/07 10:21:14;;;;;;;14.02;7.28;;;;;;;20.25;56.29;102034.31;4860179;29;20382;-82
2023/06/07 10:23:49;;;;;;;12.48;6.75;;;;;;;20.19;56.52;102029.59;4860447;29;20482;-84
2023/06/07 10:26:53;;;;;;;11.95;7.43;;;;;;;20.41;57.37;102073.22;4866865;23;20058;-84
2023/06/07 10:29:28;;;;;;;17.42;8.25;;;;;;;19.47;57.25;101946.50;4860238;29;20030;-82
2023/06/07 10:32:27;;;;;;;16.73;8.65;;;;;;;18.86;57.07;101885.22;4860088;29;20037;-84
2023/06/07 10:35:03;;;;;;;11.65;7.03;;;;;;;19.43;59.15;101976.50;4861996;29;20034;-84
2023/06/07 10:37:36;;;;;;;16.63;8.35;;;;;;;19.30;57.99;101954.06;4863682;29;20034;-88
2023/06/07 10:40:10;;;;;;;14.23;8.52;;;;;;;19.83;57.65;102051.03;4862499;29;20840;-87
2023/06/07 10:42:58;;;;;;;14.30;8.20;;;;;;;20.05;58.24;102079.75;4863650;29;20037;-85
2023/06/07 10:45:29;;;;;;;14.05;8.07;;;;;;;19.33;57.25;101930.25;4870387;23;20060;-85
2023/06/07 10:48:43;;;;;;;15.13;8.45;;;;;;;19.30;57.20;101899.06;4863864;29;20036;-83
2023/06/07 10:54:35;;;;;;;13.95;7.72;;;;;;;20.97;55.02;102058.81;4820365;23;20604;-83
2023/06/07 10:57:02;;;;;;;12.53;6.13;;;;;;;21.09;55.24;102063.00;4863733;29;20037;-83
2023/06/07 10:59:28;;;;;;;17.10;8.43;;;;;;;21.04;54.68;102052.91;4863239;29;20030;-85
2023/06/07 11:02:24;;;;;;;12.88;7.88;;;;;;;20.94;56.36;102057.28;4863476;29;20513;-85
2023/06/07 11:04:52;;;;;;;13.95;7.90;;;;;;;21.00;55.05;102054.13;4863414;29;20105;-86
2023/06/07 11:07:27;;;;;;;13.40;6.78;;;;;;;21.08;55.43;102063.97;4863429;29;20138;-85
2023/06/07 11:10:04;;;;;;;13.60;7.90;;;;;;;21.16;55.41;102053.63;4863476;29;20093;-82
2023/06/07 11:12:36;;;;;;;15.98;7.57;;;;;;;21.24;54.14;102051.16;4863238;29;20097;-84
2023/06/07 11:15:16;;;;;;;11.23;6.32;;;;;;;21.32;55.16;102053.09;4863313;29;20030;-84
2023/06/07 11:18:05;;;;;;;14.02;6.82;;;;;;;21.60;54.55;102049.66;4863178;29;20058;-82
2023/06/07 11:26:19;;;;;;;14.65;8.10;;;;;;;20.64;52.80;101887.53;4859654;29;20561;-83
2023/06/07 11:28:45;;;;;;;16.52;7.00;;;;;;;20.71;54.12;101914.91;4921969;23;20540;-85
2023/06/07 11:33:48;;;;;;;12.18;7.18;;;;;;;20.99;52.92;101857.31;5180098;23;20064;-85
2023/06/07 11:36:13;;;;;;;14.02;7.10;;;;;;;21.33;51.91;101920.75;4862609;29;20034;-83
2023/06/07 11:38:39;;;;;;;13.77;7.03;;;;;;;21.46;51.90;101973.88;4862842;29;20029;-83
2023/06/07 11:43:38;;;;;;;10.38;6.13;;;;;;;20.97;52.74;101898.63;4887639;23;20061;-84
2023/06/07 11:46:17;;;;;;;14.73;6.85;;;;;;;22.06;54.10;102021.78;4880853;29;20056;-85
2023/06/07 11:48:43;;;;;;;16.98;6.88;;;;;;;22.22;50.86;102018.56;4881510;29;20036;-83
2023/06/07 11:51:09;;;;;;;12.75;7.00;;;;;;;21.93;51.60;101937.09;4880193;29;20044;-85
2023/06/07 11:56:22;;;;;;;14.38;7.47;;;;;;;22.05;50.77;101873.66;4670098;27;20118;-84